Time;durP1;ratioP1;P1;durP2;ratioP2;P2;SDS_P1;SDS_P2;PMS_P1;PMS_P2;Temp;Humidity;BMP_temperature;BMP_pressure;BME280_temperature;BME280_humidity;BME280_pressure;Samples;Min_cycle;Max_cycle;Signal;HPM_P1;HPM_P2
2022/12/14 00:00:47;;;;;;;96.90;38.60;;;;;;;-5.39;99.04;100192.78;3476903;83;34772;-78
2022/12/14 00:05:48;;;;;;;83.73;35.83;;;;;;;-5.42;99.31;100187.97;3452067;83;98801;-78
2022/12/14 00:10:49;;;;;;;98.27;39.40;;;;;;;-5.42;99.70;100189.83;3473085;83;34881;-77
2022/12/14 00:15:50;;;;;;;92.13;35.70;;;;;;;-5.43;99.54;100182.87;3465999;84;98530;-78
2022/12/14 00:20:51;;;;;;;92.93;35.67;;;;;;;-5.43;100.00;100181.53;3476654;83;34962;-78
2022/12/14 00:25:52;;;;;;;108.17;43.03;;;;;;;-5.41;100.00;100173.47;3476964;83;99081;-78
2022/12/14 00:30:56;;;;;;;144.63;58.33;;;;;;;-5.42;99.97;100159.81;3472285;83;32542;-78
2022/12/14 00:35:58;;;;;;;157.80;61.43;;;;;;;-5.41;100.00;100160.62;3460582;84;26266;-77
2022/12/14 00:40:58;;;;;;;161.67;50.53;;;;;;;-5.36;100.00;100160.03;3485829;83;99636;-78
2022/12/14 00:45:59;;;;;;;147.23;51.00;;;;;;;-5.33;100.00;100155.46;3468624;84;32656;-78
2022/12/14 00:51:00;;;;;;;98.30;36.77;;;;;;;-5.32;100.00;100162.42;3457693;83;99709;-78
2022/12/14 00:56:07;;;;;;;79.00;34.23;;;;;;;-5.29;100.00;100157.05;3460837;84;32442;-77
2022/12/14 01:01:14;;;;;;;109.03;42.13;;;;;;;-5.30;100.00;100142.04;3488984;82;99215;-78
2022/12/14 01:06:20;;;;;;;85.90;39.80;;;;;;;-5.30;100.00;100150.09;3490638;82;26763;-77
2022/12/14 01:11:20;;;;;;;81.50;37.20;;;;;;;-5.33;100.00;100148.76;3485358;83;99477;-78
2022/12/14 01:16:21;;;;;;;89.10;38.43;;;;;;;-5.36;100.00;100142.60;3485821;82;32507;-78
2022/12/14 01:21:23;;;;;;;85.30;36.90;;;;;;;-5.39;100.00;100145.86;3481297;82;99234;-78
2022/12/14 01:26:26;;;;;;;84.43;34.17;;;;;;;-5.41;100.00;100149.90;3507849;82;32387;-78
2022/12/14 01:31:34;;;;;;;84.93;37.43;;;;;;;-5.46;99.70;100145.91;3477037;83;99102;-78
2022/12/14 01:36:37;;;;;;;87.07;38.17;;;;;;;-5.57;99.56;100143.82;3485089;82;30743;-78
2022/12/14 01:41:42;;;;;;;82.00;36.70;;;;;;;-5.59;99.82;100137.14;3481930;83;99178;-78
2022/12/14 01:46:49;;;;;;;101.25;42.08;;;;;;;-5.66;99.57;100124.59;3500359;82;25876;-78
2022/12/14 01:51:55;;;;;;;87.60;39.15;;;;;;;-5.72;99.64;100116.33;3486589;82;99223;-78
2022/12/14 01:56:56;;;;;;;;;;;;;;;-5.77;99.70;100113.67;3484878;82;26294;-78
2022/12/14 02:01:59;;;;;;;92.17;38.50;;;;;;;-5.85;99.62;100103.59;3472544;83;85024;-78
2022/12/14 02:07:02;;;;;;;109.53;46.77;;;;;;;-5.91;99.54;100101.99;3473828;83;26471;-78
2022/12/14 02:12:17;;;;;;;101.57;46.73;;;;;;;-5.94;99.69;100107.92;3452507;84;99216;-78
2022/12/14 02:17:19;;;;;;;97.50;41.47;;;;;;;-6.01;99.68;100102.08;3473570;83;28180;-78
2022/12/14 02:22:37;;;;;;;88.50;37.47;;;;;;;-6.04;99.88;100100.75;3462779;83;99209;-78
2022/12/14 02:28:06;;;;;;;81.07;36.67;;;;;;;-6.07;99.84;100101.81;3460643;84;26344;-78
2022/12/14 02:33:30;;;;;;;84.77;36.10;;;;;;;-6.11;99.79;100102.91;3480337;83;98806;-78
2022/12/14 02:39:13;;;;;;;84.60;37.70;;;;;;;-6.16;99.76;100108.29;3461737;84;25858;-78
2022/12/14 02:44:41;;;;;;;114.13;43.27;;;;;;;-6.23;99.85;100111.03;3462859;83;121444;-79
2022/12/14 02:50:06;;;;;;;96.40;43.73;;;;;;;-6.32;99.45;100101.95;3483210;84;27882;-79
2022/12/14 02:55:21;;;;;;;140.73;53.65;;;;;;;-6.37;99.59;100100.64;3456934;83;98717;-79
2022/12/14 03:00:23;;;;;;;109.73;41.10;;;;;;;-6.41;99.70;100095.03;3461014;82;26399;-79
2022/12/14 03:05:25;;;;;;;87.27;33.90;;;;;;;-6.45;99.58;100089.14;3483411;82;99217;-79
2022/12/14 03:10:43;;;;;;;100.47;40.07;;;;;;;-6.50;99.66;100090.53;3485998;83;33151;-79
2022/12/14 03:15:49;;;;;;;111.83;45.00;;;;;;;-6.54;99.78;100084.11;3474607;82;99196;-78
2022/12/14 03:20:53;;;;;;;83.73;36.33;;;;;;;-6.57;99.68;100088.14;3497507;83;26256;-79
2022/12/14 03:26:23;;;;;;;81.83;36.03;;;;;;;-6.62;99.43;100088.16;3485963;82;98443;-78
2022/12/14 03:31:47;;;;;;;98.55;38.42;;;;;;;-6.68;99.46;100099.95;3483610;82;98968;-78
2022/12/14 03:37:12;;;;;;;86.37;38.80;;;;;;;-6.75;99.33;100094.62;3503768;82;27244;-77
2022/12/14 03:42:34;;;;;;;93.27;41.67;;;;;;;-6.81;99.47;100087.13;3473821;82;99156;-77
2022/12/14 03:48:10;;;;;;;99.67;42.73;;;;;;;-6.82;99.57;100086.87;3477236;83;25844;-78
2022/12/14 03:53:22;;;;;;;90.27;39.77;;;;;;;-6.86;99.51;100076.99;3492757;82;98886;-78
2022/12/14 03:58:48;;;;;;;79.50;37.73;;;;;;;-6.89;99.74;100073.52;3495321;84;26432;-78
2022/12/14 04:03:58;;;;;;;90.87;38.00;;;;;;;-6.94;99.66;100064.97;3475345;82;98899;-78
2022/12/14 04:09:21;;;;;;;91.93;40.93;;;;;;;-6.98;99.58;100067.91;3489144;83;26191;-78
2022/12/14 04:20:27;;;;;;;84.43;40.23;;;;;;;-7.06;99.68;100063.14;3505341;82;28129;-79
2022/12/14 04:30:53;;;;;;;80.37;31.03;;;;;;;-7.13;99.72;100067.97;3487512;82;26271;-78
2022/12/14 04:35:57;;;;;;;73.87;30.93;;;;;;;-7.17;99.89;100066.90;3479913;83;98884;-78
2022/12/14 04:41:08;;;;;;;76.77;31.67;;;;;;;-7.19;99.90;100062.89;3490954;82;98768;-78
2022/12/14 04:46:17;;;;;;;84.37;35.97;;;;;;;-7.23;99.86;100051.94;3484211;84;26252;-78
2022/12/14 04:51:23;;;;;;;88.50;40.47;;;;;;;-7.24;100.00;100044.19;3481223;82;98917;-78
2022/12/14 04:56:42;;;;;;;104.83;49.43;;;;;;;-7.26;100.00;100039.66;3494612;82;26490;-78
2022/12/14 05:02:15;;;;;;;100.87;40.13;;;;;;;-7.28;100.00;100038.58;3472129;83;99163;-78
2022/12/14 05:07:43;;;;;;;88.83;36.17;;;;;;;-7.30;100.00;100033.24;3464188;84;26594;-78
2022/12/14 05:13:08;;;;;;;85.33;36.10;;;;;;;-7.30;100.00;100029.23;3465709;83;99031;-78
2022/12/14 05:18:09;;;;;;;78.03;36.87;;;;;;;-7.33;100.00;100033.77;3469406;84;26421;-78
2022/12/14 05:23:10;;;;;;;87.80;37.33;;;;;;;-7.36;100.00;100023.08;3476655;83;99373;-78
2022/12/14 05:28:11;;;;;;;86.30;36.17;;;;;;;-7.38;100.00;100015.06;3476206;84;33104;-77
2022/12/14 05:33:19;;;;;;;69.03;30.80;;;;;;;-7.39;100.00;100016.14;3473871;83;98988;-77
2022/12/14 05:38:20;;;;;;;73.87;34.47;;;;;;;-7.40;100.00;100011.88;3469015;83;26406;-78
2022/12/14 05:43:21;;;;;;;77.07;33.33;;;;;;;-7.42;100.00;100002.00;3461666;83;99135;-79
2022/12/14 05:48:22;;;;;;;67.53;30.77;;;;;;;-7.43;100.00;100003.86;3479470;83;32410;-79
2022/12/14 05:53:22;;;;;;;77.05;32.78;;;;;;;-7.44;100.00;100005.45;3476256;83;99112;-78
2022/12/14 05:58:23;;;;;;;78.43;33.07;;;;;;;-7.47;100.00;100000.11;3476749;84;32528;-78
2022/12/14 06:03:24;;;;;;;75.87;30.63;;;;;;;-7.49;100.00;100004.13;3475213;83;99321;-78
2022/12/14 06:08:25;;;;;;;84.20;34.07;;;;;;;-7.49;100.00;100009.47;3480620;83;31779;-77
2022/12/14 06:13:26;;;;;;;93.37;37.77;;;;;;;-7.53;100.00;99999.86;3476318;84;99429;-78
2022/12/14 06:18:27;;;;;;;93.07;33.60;;;;;;;-7.56;100.00;99999.60;3491897;83;33263;-78
2022/12/14 06:23:28;;;;;;;72.57;33.63;;;;;;;-7.59;99.94;99998.27;3470563;83;98768;-78
2022/12/14 06:28:29;;;;;;;74.13;30.37;;;;;;;-7.60;100.00;100003.88;3479373;83;26017;-78
2022/12/14 06:33:33;;;;;;;68.37;30.30;;;;;;;-7.62;99.98;99993.48;3478412;83;99435;-77
2022/12/14 06:38:34;;;;;;;72.53;29.20;;;;;;;-7.63;100.00;99992.41;3476077;83;27656;-78
2022/12/14 06:43:35;;;;;;;60.40;25.63;;;;;;;-7.65;99.99;99993.19;3469733;83;98794;-79
2022/12/14 06:48:36;;;;;;;68.20;26.17;;;;;;;-7.69;99.86;99986.25;3482144;83;25829;-76
2022/12/14 06:53:37;;;;;;;63.10;25.83;;;;;;;-7.72;99.95;99989.48;3475308;83;99048;-77
2022/12/14 06:58:38;;;;;;;68.83;27.47;;;;;;;-7.75;100.00;99996.67;3484777;83;26507;-77
2022/12/14 07:03:40;;;;;;;71.27;29.57;;;;;;;-7.77;100.00;99992.67;3472397;83;99313;-78
2022/12/14 07:08:41;;;;;;;73.47;31.47;;;;;;;-7.78;100.00;99987.88;3493746;83;26861;-78
2022/12/14 07:13:42;;;;;;;88.57;35.87;;;;;;;-7.79;100.00;99982.80;3478416;84;99586;-77
2022/12/14 07:18:43;;;;;;;71.23;29.70;;;;;;;-7.78;100.00;99984.40;3489931;83;26555;-78
2022/12/14 07:23:47;;;;;;;65.90;27.37;;;;;;;-7.78;100.00;99979.87;3480133;83;99132;-79
2022/12/14 07:28:48;;;;;;;52.30;24.73;;;;;;;-7.76;100.00;99972.38;3484742;83;26599;-77
2022/12/14 07:33:53;;;;;;;59.85;24.65;;;;;;;-7.74;100.00;99971.56;3474975;83;99311;-79
2022/12/14 07:38:55;;;;;;;101.10;38.87;;;;;;;-7.70;100.00;99967.84;3482886;83;28282;-78
2022/12/14 07:43:58;;;;;;;119.45;37.78;;;;;;;-7.65;100.00;99964.62;3473563;83;99366;-78
2022/12/14 07:49:00;;;;;;;85.90;30.93;;;;;;;-7.61;100.00;99964.36;3482775;83;26910;-77
2022/12/14 07:54:04;;;;;;;67.63;30.30;;;;;;;-7.57;100.00;99968.62;3481198;84;99310;-77
2022/12/14 07:59:07;;;;;;;79.90;34.43;;;;;;;-7.51;100.00;99963.00;3488080;83;27446;-78
2022/12/14 08:04:13;;;;;;;75.23;35.07;;;;;;;-7.47;100.00;99953.91;3442347;84;99466;-78
2022/12/14 08:09:16;;;;;;;68.85;31.27;;;;;;;-7.41;100.00;99951.48;3460835;83;28463;-78
2022/12/14 08:14:18;;;;;;;68.33;28.92;;;;;;;-7.35;100.00;99945.86;3462624;83;99081;-77
2022/12/14 08:19:19;;;;;;;78.10;34.03;;;;;;;-7.27;100.00;99929.77;3472289;83;28449;-77
2022/12/14 08:24:20;;;;;;;78.97;34.00;;;;;;;-7.12;100.00;99927.05;3454395;84;99273;-78
2022/12/14 08:29:21;;;;;;;73.80;33.43;;;;;;;-6.98;100.00;99925.40;3460504;83;26236;-77
2022/12/14 08:34:22;;;;;;;68.90;30.40;;;;;;;-6.81;100.00;99917.82;3458595;84;99068;-77
2022/12/14 08:39:23;;;;;;;66.05;29.67;;;;;;;-6.70;100.00;99908.66;3466621;83;26028;-77
2022/12/14 08:44:23;;;;;;;90.63;36.27;;;;;;;-6.64;100.00;99905.69;3463658;83;99118;-78
2022/12/14 08:49:24;;;;;;;76.30;34.53;;;;;;;-6.45;100.00;99903.94;3463759;84;25889;-79
2022/12/14 08:54:25;;;;;;;75.07;33.50;;;;;;;-6.45;100.00;99903.94;3460210;83;99178;-78
2022/12/14 08:59:26;;;;;;;78.43;35.07;;;;;;;-6.37;100.00;99899.34;3468300;83;25967;-78
2022/12/14 09:04:27;;;;;;;89.63;40.63;;;;;;;-6.30;100.00;99893.13;3419835;84;98980;-78
2022/12/14 09:09:27;;;;;;;74.60;33.27;;;;;;;-6.20;100.00;99893.57;3421067;84;33710;-77
2022/12/14 09:14:29;;;;;;;72.85;34.67;;;;;;;-6.13;100.00;99886.00;3415213;84;98947;-77
2022/12/14 09:19:30;;;;;;;69.00;32.83;;;;;;;-6.07;100.00;99874.98;3417623;85;33249;-77
2022/12/14 09:24:30;;;;;;;78.47;36.33;;;;;;;-5.97;100.00;99878.09;3414537;84;99149;-77
2022/12/14 09:29:32;;;;;;;79.63;37.20;;;;;;;-5.83;100.00;99869.67;3423654;86;31365;-76
2022/12/14 09:34:32;;;;;;;61.43;31.87;;;;;;;-5.68;100.00;99860.11;3416144;84;98916;-77
2022/12/14 09:39:35;;;;;;;65.60;32.13;;;;;;;-5.53;100.00;99848.66;3428700;85;29550;-76
2022/12/14 09:44:49;;;;;;;69.07;33.27;;;;;;;-5.41;100.00;99842.91;3420769;84;99017;-76
2022/12/14 09:50:04;;;;;;;83.50;38.27;;;;;;;-5.34;100.00;99825.36;3418829;85;33506;-77
2022/12/14 09:55:34;;;;;;;69.37;32.23;;;;;;;-5.18;100.00;99825.98;3413458;84;99032;-77
2022/12/14 10:00:43;;;;;;;68.67;33.37;;;;;;;-5.06;100.00;99828.50;3423444;84;33323;-77
2022/12/14 10:06:06;;;;;;;73.87;37.23;;;;;;;-4.96;100.00;99812.80;3457624;82;99046;-75
2022/12/14 10:11:40;;;;;;;181.33;76.07;;;;;;;-4.87;100.00;99811.84;3363727;83;99212;-76
2022/12/14 10:16:46;;;;;;;130.53;57.80;;;;;;;-4.75;100.00;99806.05;3482093;83;33261;-76
2022/12/14 10:21:56;;;;;;;70.22;36.63;;;;;;;-4.64;100.00;99798.87;3474648;84;99012;-76
2022/12/14 10:26:57;;;;;;;75.83;34.50;;;;;;;-4.61;99.69;99782.19;3489141;83;25854;-76
2022/12/14 10:32:30;;;;;;;74.20;34.90;;;;;;;-4.54;100.00;99779.92;3469431;83;99159;-76
2022/12/14 10:37:35;;;;;;;77.23;37.30;;;;;;;-4.46;99.68;99778.45;3477269;83;33269;-76
2022/12/14 10:43:20;;;;;;;80.90;37.87;;;;;;;-4.44;99.50;99774.91;3474194;83;98982;-77
2022/12/14 10:48:30;;;;;;;80.43;37.23;;;;;;;-4.38;99.08;99760.31;3478295;84;33160;-78
2022/12/14 10:54:20;;;;;;;78.13;39.63;;;;;;;-4.31;99.04;99763.42;3469523;83;99102;-78
2022/12/14 10:59:28;;;;;;;81.40;39.67;;;;;;;-4.20;98.88;99756.78;3479131;84;33309;-77
2022/12/14 11:04:51;;;;;;;75.43;36.00;;;;;;;-4.11;98.69;99754.98;3424789;84;98712;-79
2022/12/14 11:09:53;;;;;;;89.50;39.57;;;;;;;-4.06;98.24;99744.14;3405627;85;26567;-76
2022/12/14 11:14:58;;;;;;;90.83;40.30;;;;;;;-3.98;98.40;99730.03;3395991;86;98892;-77
2022/12/14 11:20:21;;;;;;;92.82;41.18;;;;;;;-3.93;97.87;99721.30;3397657;85;26418;-77
2022/12/14 11:25:41;;;;;;;80.32;37.03;;;;;;;-3.88;98.01;99714.48;3395065;85;98757;-77
2022/12/14 11:31:26;;;;;;;86.63;40.97;;;;;;;-3.83;97.72;99704.20;3408343;85;33340;-77
2022/12/14 11:36:40;;;;;;;83.57;38.83;;;;;;;-3.79;97.90;99702.48;3370028;86;33323;-77
2022/12/14 11:41:45;;;;;;;76.03;36.33;;;;;;;-3.72;97.34;99706.36;3392560;85;98967;-77
2022/12/14 11:47:00;;;;;;;60.67;29.63;;;;;;;-3.73;96.87;99684.61;3403305;85;26350;-77
2022/12/14 11:52:12;;;;;;;91.50;40.27;;;;;;;-3.69;96.88;99686.14;3405144;85;99120;-77
2022/12/14 11:57:39;;;;;;;96.00;41.37;;;;;;;-3.70;96.67;99688.59;3388488;86;26506;-77
2022/12/14 12:03:09;;;;;;;84.70;39.13;;;;;;;-3.69;96.53;99678.08;3340772;87;98881;-77
2022/12/14 12:08:26;;;;;;;84.13;41.80;;;;;;;-3.68;96.38;99674.29;3360006;86;33716;-77
2022/12/14 12:13:39;;;;;;;90.35;43.13;;;;;;;-3.68;96.49;99667.03;3401161;85;98938;-77
2022/12/14 12:19:03;;;;;;;96.07;45.07;;;;;;;-3.67;96.49;99667.27;3405387;85;26022;-77
2022/12/14 12:24:31;;;;;;;93.05;44.65;;;;;;;-3.65;96.62;99661.60;3433068;85;98994;-77
2022/12/14 12:29:49;;;;;;;100.37;45.60;;;;;;;-3.62;96.29;99664.48;3437939;84;34170;-76
2022/12/14 12:35:07;;;;;;;92.47;44.57;;;;;;;-3.57;96.34;99652.80;3434687;84;99006;-77
2022/12/14 12:40:35;;;;;;;96.57;46.87;;;;;;;-3.53;96.12;99649.22;3421090;84;33218;-77
2022/12/14 12:45:53;;;;;;;97.62;43.42;;;;;;;-3.48;96.20;99639.70;3495430;82;98915;-82
2022/12/14 12:51:02;;;;;;;99.23;46.77;;;;;;;-3.38;96.28;99627.91;3501696;83;98252;-80
2022/12/14 12:56:18;;;;;;;102.47;46.63;;;;;;;-3.30;96.25;99625.81;3425570;84;33816;-81
2022/12/14 13:01:33;;;;;;;98.80;43.53;;;;;;;-3.22;95.94;99625.09;3442983;84;98817;-81
2022/12/14 13:06:55;;;;;;;92.97;42.93;;;;;;;-3.18;95.57;99614.75;3485884;84;25876;-82
2022/12/14 13:11:57;;;;;;;88.15;41.40;;;;;;;-3.14;95.61;99613.59;3473465;83;98830;-82
2022/12/14 13:17:03;;;;;;;101.87;45.13;;;;;;;-3.15;95.28;99611.46;3484697;83;25841;-83
2022/12/14 13:22:04;;;;;;;100.03;46.83;;;;;;;-3.15;95.16;99603.93;3482353;84;99377;-83
2022/12/14 13:27:25;;;;;;;97.40;46.03;;;;;;;-3.18;94.65;99606.68;3482636;83;33878;-84
2022/12/14 13:32:56;;;;;;;83.80;36.30;;;;;;;-3.21;94.94;99602.47;3476482;84;98886;-82
2022/12/14 13:38:30;;;;;;;106.37;51.77;;;;;;;-3.22;94.26;99598.20;3488087;83;33370;-84
2022/12/14 13:43:53;;;;;;;98.35;44.38;;;;;;;-3.30;94.53;99593.00;3478704;83;98283;-84
2022/12/14 13:49:02;;;;;;;110.53;49.77;;;;;;;-3.40;94.51;99595.92;3477673;83;34361;-83
2022/12/14 13:54:07;;;;;;;96.63;44.25;;;;;;;-3.47;94.64;99590.72;3476711;83;99032;-82
2022/12/14 13:59:31;;;;;;;96.30;47.63;;;;;;;-3.55;94.57;99589.55;3456562;83;33298;-82
2022/12/14 14:04:34;;;;;;;94.03;44.40;;;;;;;-3.59;94.57;99591.28;3478972;83;98498;-82
2022/12/14 14:09:47;;;;;;;110.90;47.07;;;;;;;-3.70;94.56;99580.52;3480087;83;26211;-82
2022/12/14 14:14:55;;;;;;;98.23;44.63;;;;;;;-3.75;94.72;99575.80;3357475;86;98614;-82
2022/12/14 14:19:58;;;;;;;114.63;47.93;;;;;;;-3.81;94.72;99568.95;3483856;83;26386;-82
2022/12/14 14:25:04;;;;;;;111.27;48.43;;;;;;;-3.90;94.76;99576.13;3476625;83;98962;-83
2022/12/14 14:30:30;;;;;;;98.17;41.10;;;;;;;-4.01;94.86;99576.91;3494818;84;25870;-84
2022/12/14 14:35:37;;;;;;;108.03;46.53;;;;;;;-4.07;94.96;99574.63;3468888;83;99356;-84
2022/12/14 14:40:39;;;;;;;102.23;44.47;;;;;;;-4.21;94.84;99561.23;3483163;83;33261;-78
2022/12/14 14:45:47;;;;;;;106.17;49.87;;;;;;;-4.31;94.94;99556.06;3478849;83;98830;-75
2022/12/14 14:50:52;;;;;;;114.27;50.10;;;;;;;-4.40;94.95;99544.45;3486777;83;33244;-75
2022/12/14 14:56:12;;;;;;;113.43;51.93;;;;;;;-4.45;95.05;99539.19;3483978;83;98650;-75
2022/12/14 15:01:24;;;;;;;105.67;45.83;;;;;;;-4.51;95.14;99536.36;3474693;83;99378;-76
2022/12/14 15:06:41;;;;;;;106.20;48.20;;;;;;;-4.54;95.23;99535.61;3503326;82;33262;-76
2022/12/14 15:11:46;;;;;;;103.40;45.40;;;;;;;-4.60;95.11;99531.44;3499821;82;99271;-77
2022/12/14 15:16:47;;;;;;;110.10;50.15;;;;;;;-4.67;94.98;99523.00;3499876;83;25841;-76
2022/12/14 15:21:59;;;;;;;117.25;49.05;;;;;;;-4.72;95.18;99521.77;3495253;82;99162;-76
2022/12/14 15:27:18;;;;;;;102.57;46.90;;;;;;;-4.79;95.22;99515.20;3497952;82;26423;-77
2022/12/14 15:32:22;;;;;;;102.40;43.15;;;;;;;-4.86;95.30;99509.45;3462239;82;99228;-76
2022/12/14 15:37:28;;;;;;;89.67;43.23;;;;;;;-4.90;95.51;99503.88;3502028;82;33153;-76
2022/12/14 15:42:29;;;;;;;109.85;50.23;;;;;;;-4.92;95.61;99501.25;3492877;82;98756;-76
2022/12/14 15:47:30;;;;;;;108.40;47.77;;;;;;;-4.97;95.79;99486.03;3502490;82;33427;-77
2022/12/14 15:52:32;;;;;;;104.20;45.57;;;;;;;-4.98;95.79;99489.00;3492873;82;99245;-77
2022/12/14 15:57:32;;;;;;;103.60;45.20;;;;;;;-5.00;95.68;99485.83;3505533;82;33254;-77
2022/12/14 16:02:36;;;;;;;94.13;43.40;;;;;;;-5.05;95.77;99483.25;3497515;82;98910;-78
2022/12/14 16:07:38;;;;;;;101.00;44.03;;;;;;;-5.05;95.76;99471.17;3510743;82;25849;-79
2022/12/14 16:12:46;;;;;;;105.57;44.13;;;;;;;-5.12;95.71;99468.10;3501636;83;99135;-78
2022/12/14 16:17:50;;;;;;;102.60;44.47;;;;;;;-5.16;95.70;99465.76;3508188;82;33649;-79
2022/12/14 16:23:14;;;;;;;100.97;43.68;;;;;;;-5.18;95.76;99459.34;3492652;82;99317;-78
2022/12/14 16:28:32;;;;;;;98.40;42.57;;;;;;;-5.21;95.90;99442.52;3500430;82;28462;-76
2022/12/14 16:33:36;;;;;;;102.45;44.95;;;;;;;-5.22;95.95;99442.81;3493319;83;99008;-76
2022/12/14 16:38:56;;;;;;;101.50;45.00;;;;;;;-5.28;95.86;99435.43;3493888;84;25860;-77
2022/12/14 16:44:00;;;;;;;93.13;42.50;;;;;;;-5.32;95.86;99423.70;3497052;82;99186;-77
2022/12/14 16:49:38;;;;;;;91.87;39.93;;;;;;;-5.39;95.75;99427.33;3503714;82;25965;-77
2022/12/14 16:54:39;;;;;;;86.30;38.55;;;;;;;-5.44;95.92;99425.28;3494361;83;98930;-77
2022/12/14 16:59:44;;;;;;;84.13;37.07;;;;;;;-5.48;95.97;99406.84;3508401;82;33517;-76
2022/12/14 17:04:45;;;;;;;89.97;39.13;;;;;;;-5.52;96.06;99399.17;3493201;83;98662;-77
2022/12/14 17:09:46;;;;;;;90.93;42.37;;;;;;;-5.53;96.00;99387.64;3499369;83;33668;-77
2022/12/14 17:14:47;;;;;;;91.93;42.47;;;;;;;-5.57;95.98;99390.66;3491400;82;98693;-80
2022/12/14 17:19:48;;;;;;;91.60;38.73;;;;;;;-5.61;95.94;99392.38;3498554;83;33280;-78
2022/12/14 17:24:49;;;;;;;83.77;34.90;;;;;;;-5.64;95.91;99403.67;3476917;82;98885;-78
2022/12/14 17:29:50;;;;;;;88.67;43.50;;;;;;;-5.68;95.91;99391.16;3498668;82;32413;-78
2022/12/14 17:34:51;;;;;;;98.97;44.57;;;;;;;-5.71;96.02;99391.22;3488949;83;98863;-79
2022/12/14 17:39:52;;;;;;;102.07;46.90;;;;;;;-5.72;96.04;99380.78;3499466;82;33348;-78
2022/12/14 17:44:58;;;;;;;135.37;57.00;;;;;;;-5.74;95.84;99377.05;3494233;84;99239;-79
2022/12/14 17:50:00;;;;;;;132.57;48.90;;;;;;;-5.74;95.99;99380.30;3504572;83;26487;-79
2022/12/14 17:55:01;;;;;;;131.37;49.85;;;;;;;-5.76;96.04;99388.63;3491956;82;98678;-79
2022/12/14 18:05:25;;;;;;;113.00;46.53;;;;;;;-5.77;96.05;99388.91;3490759;83;98645;-78
2022/12/14 18:10:27;;;;;;;106.57;48.70;;;;;;;-5.76;96.19;99385.95;3476716;83;26336;-77
2022/12/14 18:15:38;;;;;;;90.85;40.83;;;;;;;-5.77;96.12;99381.68;3472637;84;98711;-78
2022/12/14 18:20:42;;;;;;;90.87;43.90;;;;;;;-5.77;96.12;99381.68;3474401;84;33778;-77
2022/12/14 18:25:46;;;;;;;128.63;52.47;;;;;;;-5.82;95.98;99379.66;3468256;83;98494;-78
2022/12/14 18:30:54;;;;;;;127.53;50.63;;;;;;;-5.84;96.04;99390.66;3471232;84;25934;-77
2022/12/14 18:35:56;;;;;;;134.93;55.13;;;;;;;-5.89;96.02;99383.27;3480357;83;33451;-76
2022/12/14 18:40:59;;;;;;;118.13;50.37;;;;;;;-5.91;96.07;99381.41;3475342;83;99259;-78
2022/12/14 18:46:00;;;;;;;116.20;47.27;;;;;;;-5.95;96.18;99378.53;3481307;84;33765;-77
2022/12/14 18:51:01;;;;;;;101.03;44.33;;;;;;;-5.95;96.26;99374.52;3456988;84;99203;-78
2022/12/14 18:56:06;;;;;;;100.67;45.83;;;;;;;-5.96;96.36;99376.95;3475908;83;33764;-78
2022/12/14 19:01:11;;;;;;;96.93;42.57;;;;;;;-5.98;96.45;99369.77;3472310;84;101839;-78
2022/12/14 19:06:21;;;;;;;96.50;41.20;;;;;;;-5.95;96.74;99370.50;3485903;83;33300;-76
2022/12/14 19:11:32;;;;;;;107.00;45.88;;;;;;;-5.96;96.52;99364.90;3450209;83;98878;-79
2022/12/14 19:16:33;;;;;;;116.40;49.67;;;;;;;-5.97;96.62;99361.17;3464945;84;29007;-79
2022/12/14 19:21:34;;;;;;;113.47;54.07;;;;;;;-5.97;96.74;99360.64;3469450;83;99011;-77
2022/12/14 19:26:37;;;;;;;99.50;40.83;;;;;;;-5.96;96.73;99368.11;3492669;84;33215;-78
2022/12/14 19:31:38;;;;;;;93.50;39.80;;;;;;;-5.97;96.75;99373.22;3468885;83;98964;-78
2022/12/14 19:36:39;;;;;;;92.40;42.97;;;;;;;-6.00;96.81;99368.47;3478972;83;33275;-79
2022/12/14 19:41:41;;;;;;;86.60;38.13;;;;;;;-5.99;96.82;99372.20;3472076;84;99022;-79
2022/12/14 19:46:42;;;;;;;84.33;37.47;;;;;;;-6.00;96.82;99372.48;3480280;84;33222;-79
2022/12/14 19:51:43;;;;;;;81.17;37.80;;;;;;;-6.03;96.87;99377.89;3485676;83;99137;-79
2022/12/14 19:56:44;;;;;;;82.33;35.90;;;;;;;-6.04;96.95;99372.82;3479273;84;33207;-79
2022/12/14 20:01:45;;;;;;;86.67;35.80;;;;;;;-6.05;96.97;99367.22;3473036;83;99090;-77
2022/12/14 20:06:46;;;;;;;89.90;37.33;;;;;;;-6.05;97.10;99359.95;3479282;84;32334;-78
2022/12/14 20:11:47;;;;;;;83.47;36.37;;;;;;;-6.06;97.11;99362.95;3476936;84;99050;-78
2022/12/14 20:16:47;;;;;;;81.00;39.20;;;;;;;-6.04;97.15;99371.48;3477448;83;28519;-79
2022/12/14 20:21:51;;;;;;;91.73;38.47;;;;;;;-6.03;97.14;99372.53;3466280;83;98740;-79
2022/12/14 20:26:54;;;;;;;87.30;39.97;;;;;;;-6.02;97.21;99375.98;3486175;83;31647;-79
2022/12/14 20:31:55;;;;;;;89.77;40.60;;;;;;;-6.01;97.30;99371.68;3473611;83;99278;-80
2022/12/14 20:36:56;;;;;;;105.37;44.10;;;;;;;-6.00;97.30;99373.27;3483732;83;33761;-79
2022/12/14 20:41:57;;;;;;;98.90;42.00;;;;;;;-5.96;97.34;99365.43;3463076;84;99079;-79
2022/12/14 20:46:58;;;;;;;101.75;42.62;;;;;;;-5.95;97.30;99357.67;3479649;83;33716;-79
2022/12/14 20:51:59;;;;;;;103.00;43.67;;;;;;;-5.92;97.38;99373.13;3472775;83;99253;-78
2022/12/14 20:56:59;;;;;;;96.13;44.43;;;;;;;-5.89;97.48;99369.31;3482187;83;33284;-77
2022/12/14 21:02:01;;;;;;;96.30;43.23;;;;;;;-5.86;97.47;99362.58;3478113;83;99143;-80
2022/12/14 21:07:02;;;;;;;105.77;46.80;;;;;;;-5.83;97.36;99368.70;3502619;82;28459;-78
2022/12/14 21:12:21;;;;;;;103.12;44.67;;;;;;;-5.85;97.37;99374.34;3508715;82;99244;-78
2022/12/14 21:17:26;;;;;;;99.93;45.03;;;;;;;-5.83;97.25;99370.03;3515912;82;26593;-79
2022/12/14 21:22:29;;;;;;;145.07;72.17;;;;;;;-5.85;97.09;99359.61;3514653;82;99039;-79
2022/12/14 21:27:30;;;;;;;103.50;49.67;;;;;;;-5.92;96.97;99359.20;3521765;82;26360;-79
2022/12/14 21:32:34;;;;;;;121.90;54.20;;;;;;;-5.93;97.11;99365.66;3509708;82;99236;-78
2022/12/14 21:37:37;;;;;;;111.73;51.43;;;;;;;-5.89;97.26;99355.92;3532373;82;25897;-78
2022/12/14 21:42:38;;;;;;;107.63;52.45;;;;;;;-5.86;97.24;99355.34;3534553;82;99123;-78
2022/12/14 21:47:39;;;;;;;134.17;61.83;;;;;;;-5.87;97.15;99353.77;3522384;82;31678;-79
2022/12/14 21:52:40;;;;;;;142.63;59.03;;;;;;;-5.90;96.85;99351.66;3502180;82;99278;-77
2022/12/14 22:03:00;;;;;;;134.47;57.05;;;;;;;-6.05;96.95;99345.80;3516111;82;99055;-79
2022/12/14 22:08:01;;;;;;;121.60;51.30;;;;;;;-6.06;97.12;99343.65;3454947;82;32171;-79
2022/12/14 22:13:02;;;;;;;124.73;55.77;;;;;;;-6.12;97.18;99344.83;3417288;84;99141;-80
2022/12/14 22:18:03;;;;;;;112.87;48.37;;;;;;;-6.15;97.23;99345.97;3433933;84;31929;-79
2022/12/14 22:23:04;;;;;;;102.63;43.20;;;;;;;-6.14;97.39;99347.02;3405408;84;99007;-80
2022/12/14 22:28:04;;;;;;;101.90;45.20;;;;;;;-6.17;97.27;99343.58;3430280;84;31724;-80
2022/12/14 22:33:06;;;;;;;106.50;44.03;;;;;;;-6.19;97.09;99347.63;3414221;84;99083;-79
2022/12/14 22:38:07;;;;;;;103.93;40.43;;;;;;;-6.29;96.81;99335.22;3416686;84;29906;-78
2022/12/14 22:43:08;;;;;;;101.80;43.23;;;;;;;-6.40;96.59;99337.02;3428107;84;99095;-80
2022/12/14 22:48:09;;;;;;;100.40;42.77;;;;;;;-6.46;96.88;99340.33;3437786;84;26930;-77
2022/12/14 22:53:11;;;;;;;108.77;45.40;;;;;;;-6.53;96.49;99335.91;3436095;83;98886;-79
2022/12/14 22:58:14;;;;;;;114.57;52.40;;;;;;;-6.61;96.62;99334.44;3444415;84;25877;-78
2022/12/14 23:03:16;;;;;;;119.60;53.07;;;;;;;-6.66;96.80;99333.17;3436458;84;99153;-78
2022/12/14 23:08:16;;;;;;;116.50;50.13;;;;;;;-6.69;96.82;99345.25;3477739;84;35749;-79
